Broome International Airport

Airport
ICAO code: 
YBRM
IATA Code: 
BME
Summary
ICAO Region: 
APAC
Territory: 
Location: 
Broome, Western Australia
Serving: 
Broome
Elevation: 
56 ft
Coordinates: 
Aerial View: 
17° 57' 9.195" S, 122° 14' 1.577" E
Metar
Observation
YBRM 060400Z AUTO 29009KT 9999 // NCD 33/26 Q1003
Station
Broome Airport
Date/Time
2021-12-06 04:00:00
Wind direction
290°
Wind speed
09 kts
Lowest cloud amount
no clouds detected
Temperature
33°C
Dew point
26°C
Humidity
66%
QNH
1003 hPa
Weather condition
n/a

Runways

Designator Length Width Surface Rops
10/28 2458 45 ASP Yes/Yes
Airport map: 
Aerial View: 

SKYbrary Partners:

Safety knowledge contributed by: